Time;durP1;ratioP1;P1;durP2;ratioP2;P2;SDS_P1;SDS_P2;PMS_P1;PMS_P2;Temp;Humidity;BMP_temperature;BMP_pressure;BME280_temperature;BME280_humidity;BME280_pressure;Samples;Min_cycle;Max_cycle;Signal;HPM_P1;HPM_P2
2022/10/16 00:01:42;;;;;;;6.63;2.10;;;;;;;;;;5075986;28;20326;-69
2022/10/16 00:04:09;;;;;;;9.17;2.40;;;;;;;;;;5075801;28;20275;-69
2022/10/16 00:06:35;;;;;;;8.10;2.40;;;;;;;;;;5075696;28;20742;-69
2022/10/16 00:09:01;;;;;;;8.37;2.23;;;;;;;;;;5076240;28;20318;-69
2022/10/16 00:11:29;;;;;;;13.43;2.40;;;;;;;;;;5057773;28;20287;-69
2022/10/16 00:13:56;;;;;;;7.33;1.87;;;;;;;;;;5075851;28;20689;-69
2022/10/16 00:16:22;;;;;;;9.37;2.17;;;;;;;;;;5057658;28;20330;-69
2022/10/16 00:18:49;;;;;;;9.67;1.83;;;;;;;;;;5075479;28;20314;-69
2022/10/16 00:21:16;;;;;;;8.07;2.10;;;;;;;;;;5075954;28;20889;-69
2022/10/16 00:23:42;;;;;;;8.17;1.90;;;;;;;;;;5075288;28;20301;-69
2022/10/16 00:26:13;;;;;;;8.90;2.10;;;;;;;;;;5075321;28;20277;-69
2022/10/16 00:28:40;;;;;;;10.20;2.47;;;;;;;;;;5075296;28;20275;-69
2022/10/16 00:31:07;;;;;;;9.67;2.23;;;;;;;;;;5075215;28;20770;-69
2022/10/16 00:33:33;;;;;;;10.73;2.10;;;;;;;;;;5075211;28;20289;-69
2022/10/16 00:36:00;;;;;;;5.77;1.77;;;;;;;;;;5075071;28;20305;-69
2022/10/16 00:38:26;;;;;;;9.30;1.80;;;;;;;;;;5075370;28;20278;-69
2022/10/16 00:40:52;;;;;;;15.33;3.10;;;;;;;;;;5075027;28;20275;-69
2022/10/16 00:43:37;;;;;;;9.20;2.10;;;;;;;;;;5057328;28;20282;-69
2022/10/16 00:46:04;;;;;;;9.20;2.10;;;;;;;;;;5075690;28;20283;-69
2022/10/16 00:48:31;;;;;;;6.97;1.83;;;;;;;;;;5074804;28;20092;-69
2022/10/16 00:50:58;;;;;;;7.33;1.63;;;;;;;;;;5074812;28;20310;-69
2022/10/16 00:53:25;;;;;;;6.87;1.53;;;;;;;;;;5075121;28;20278;-69
2022/10/16 00:55:52;;;;;;;11.33;2.00;;;;;;;;;;5074232;28;20291;-69
2022/10/16 00:58:18;;;;;;;10.90;2.33;;;;;;;;;;5074581;28;20367;-69
2022/10/16 01:00:44;;;;;;;7.60;2.03;;;;;;;;;;5074220;28;20759;-69
2022/10/16 01:03:30;;;;;;;7.20;1.60;;;;;;;;;;5074627;28;20780;-69
2022/10/16 01:06:00;;;;;;;8.37;1.90;;;;;;;;;;5074514;28;20271;-69
2022/10/16 01:08:36;;;;;;;10.03;2.03;;;;;;;;;;5074508;28;20291;-69
2022/10/16 01:11:10;;;;;;;7.47;1.70;;;;;;;;;;5056816;28;20754;-69
2022/10/16 01:13:39;;;;;;;11.30;1.90;;;;;;;;;;5074504;28;20289;-69
2022/10/16 01:16:18;;;;;;;10.50;1.87;;;;;;;;;;5075052;28;20317;-69
2022/10/16 01:18:46;;;;;;;8.97;2.43;;;;;;;;;;5056803;28;20298;-69
2022/10/16 01:21:12;;;;;;;8.27;1.97;;;;;;;;;;5074736;28;20314;-69
2022/10/16 01:23:54;;;;;;;5.73;1.80;;;;;;;;;;5074764;28;20341;-69
2022/10/16 01:26:39;;;;;;;7.60;1.97;;;;;;;;;;5074196;28;20289;-69
2022/10/16 01:29:14;;;;;;;10.38;2.20;;;;;;;;;;5074115;28;20357;-69
2022/10/16 01:31:40;;;;;;;;;;;;;;;;;;5057147;28;20049;-69
2022/10/16 01:34:09;;;;;;;7.63;2.03;;;;;;;;;;5074083;28;19943;-69
2022/10/16 01:36:37;;;;;;;10.47;1.90;;;;;;;;;;5073878;28;20036;-70
2022/10/16 01:39:03;;;;;;;7.20;2.00;;;;;;;;;;5074464;28;20615;-69
2022/10/16 01:41:34;;;;;;;7.20;2.00;;;;;;;;;;5073866;28;20767;-69
2022/10/16 01:44:06;;;;;;;8.30;1.97;;;;;;;;;;5056217;28;20287;-69
2022/10/16 01:46:33;;;;;;;6.80;2.13;;;;;;;;;;5073812;28;20271;-69
2022/10/16 01:49:01;;;;;;;7.93;2.30;;;;;;;;;;5073751;28;20329;-69
2022/10/16 01:51:29;;;;;;;9.13;2.10;;;;;;;;;;5056062;28;20287;-69
2022/10/16 01:53:57;;;;;;;7.17;2.20;;;;;;;;;;5074450;28;20290;-69
2022/10/16 01:56:25;;;;;;;7.20;1.90;;;;;;;;;;5074348;28;20448;-69
2022/10/16 01:59:10;;;;;;;5.40;2.00;;;;;;;;;;5055910;28;20381;-69
2022/10/16 02:01:37;;;;;;;6.45;2.47;;;;;;;;;;5073898;28;20298;-69
2022/10/16 02:04:14;;;;;;;8.40;2.23;;;;;;;;;;5055787;28;20044;-69
2022/10/16 02:06:40;;;;;;;5.83;1.97;;;;;;;;;;5073850;28;20334;-69
2022/10/16 02:09:06;;;;;;;7.67;1.90;;;;;;;;;;5073301;28;20282;-69
2022/10/16 02:11:32;;;;;;;6.07;2.23;;;;;;;;;;5073433;28;20283;-69
2022/10/16 02:14:03;;;;;;;9.80;2.17;;;;;;;;;;5055715;28;20337;-69
2022/10/16 02:16:37;;;;;;;8.20;2.10;;;;;;;;;;5073903;28;20398;-69
2022/10/16 02:19:04;;;;;;;8.70;2.00;;;;;;;;;;5073047;28;20808;-69
2022/10/16 02:21:32;;;;;;;7.13;2.27;;;;;;;;;;5074088;28;20306;-69
2022/10/16 02:24:01;;;;;;;6.97;1.80;;;;;;;;;;5073307;28;20676;-70
2022/10/16 02:26:51;;;;;;;5.77;2.00;;;;;;;;;;5073329;28;20285;-69
2022/10/16 02:29:18;;;;;;;9.30;2.53;;;;;;;;;;5060639;28;20298;-69
2022/10/16 02:31:47;;;;;;;5.40;1.90;;;;;;;;;;5055270;28;20332;-69
2022/10/16 02:34:14;;;;;;;7.07;2.00;;;;;;;;;;5073233;28;20333;-69
2022/10/16 02:36:41;;;;;;;5.87;2.03;;;;;;;;;;5055387;28;20747;-69
2022/10/16 02:39:07;;;;;;;7.53;2.17;;;;;;;;;;5073988;28;20657;-69
2022/10/16 02:41:33;;;;;;;6.93;2.30;;;;;;;;;;5073687;28;20336;-68
2022/10/16 02:43:59;;;;;;;5.67;2.00;;;;;;;;;;5073084;28;20627;-69
2022/10/16 02:46:25;;;;;;;5.70;2.10;;;;;;;;;;5073330;28;20275;-69
2022/10/16 02:48:52;;;;;;;7.37;1.90;;;;;;;;;;5055876;28;20283;-69
2022/10/16 02:51:18;;;;;;;5.00;1.70;;;;;;;;;;5073050;28;20295;-69
2022/10/16 02:53:44;;;;;;;6.33;2.13;;;;;;;;;;5055752;28;20283;-73
2022/10/16 02:56:10;;;;;;;5.10;1.97;;;;;;;;;;5072968;28;20299;-69
2022/10/16 02:58:36;;;;;;;6.80;2.23;;;;;;;;;;5055544;28;20762;-69
2022/10/16 03:01:02;;;;;;;6.53;1.90;;;;;;;;;;5073017;28;20626;-69
2022/10/16 03:03:28;;;;;;;6.20;1.97;;;;;;;;;;5073762;28;20302;-69
2022/10/16 03:05:54;;;;;;;5.60;2.20;;;;;;;;;;5072948;28;20314;-69
2022/10/16 03:08:23;;;;;;;11.47;2.00;;;;;;;;;;5072883;28;20279;-69
2022/10/16 03:10:49;;;;;;;6.47;2.07;;;;;;;;;;5072862;28;20283;-69
2022/10/16 03:13:15;;;;;;;7.20;2.30;;;;;;;;;;5073356;28;20690;-68
2022/10/16 03:15:41;;;;;;;7.63;2.00;;;;;;;;;;5055148;28;20278;-68
2022/10/16 03:18:07;;;;;;;5.50;1.73;;;;;;;;;;5073248;28;20357;-69
2022/10/16 03:20:33;;;;;;;9.30;2.30;;;;;;;;;;5059198;28;20286;-68
2022/10/16 03:23:00;;;;;;;7.57;2.07;;;;;;;;;;5077255;28;20283;-69
2022/10/16 03:25:26;;;;;;;5.40;2.30;;;;;;;;;;5076552;28;20386;-69
2022/10/16 03:27:52;;;;;;;7.30;2.13;;;;;;;;;;5058590;28;20286;-69
2022/10/16 03:30:18;;;;;;;5.80;2.10;;;;;;;;;;5076026;28;20374;-69
2022/10/16 03:32:45;;;;;;;7.40;1.87;;;;;;;;;;5076084;28;20275;-69
2022/10/16 03:35:11;;;;;;;5.97;2.30;;;;;;;;;;5076593;28;20434;-69
2022/10/16 03:37:37;;;;;;;8.67;2.50;;;;;;;;;;5075678;28;20301;-69
2022/10/16 03:40:03;;;;;;;7.00;2.23;;;;;;;;;;5058678;28;20650;-69
2022/10/16 03:42:29;;;;;;;7.53;2.47;;;;;;;;;;5076290;28;20329;-69
2022/10/16 03:44:56;;;;;;;4.70;1.87;;;;;;;;;;5075595;28;20365;-69
2022/10/16 03:47:23;;;;;;;5.50;1.63;;;;;;;;;;5058590;28;20627;-69
2022/10/16 03:49:49;;;;;;;8.03;2.13;;;;;;;;;;5075909;28;20352;-69
2022/10/16 03:52:16;;;;;;;5.10;2.00;;;;;;;;;;5076754;28;20274;-69
2022/10/16 03:54:42;;;;;;;8.00;2.10;;;;;;;;;;5075907;28;20285;-69
2022/10/16 03:57:08;;;;;;;7.17;2.40;;;;;;;;;;5075259;28;20299;-69
2022/10/16 03:59:34;;;;;;;6.50;2.10;;;;;;;;;;5075936;28;20290;-69
2022/10/16 04:02:00;;;;;;;6.87;2.43;;;;;;;;;;5058174;28;20722;-69
2022/10/16 04:04:26;;;;;;;7.67;2.57;;;;;;;;;;5075934;28;20643;-69
2022/10/16 04:06:52;;;;;;;8.60;2.10;;;;;;;;;;5076706;28;20280;-75
2022/10/16 04:09:18;;;;;;;5.73;1.80;;;;;;;;;;5075654;28;20285;-69
2022/10/16 04:11:44;;;;;;;7.43;2.27;;;;;;;;;;5075422;28;20294;-69
2022/10/16 04:14:10;;;;;;;5.63;1.80;;;;;;;;;;5057262;28;20286;-69
2022/10/16 04:16:36;;;;;;;3.63;1.53;;;;;;;;;;5075095;28;20295;-69
2022/10/16 04:19:02;;;;;;;5.73;1.77;;;;;;;;;;5075481;28;20298;-69
2022/10/16 04:21:28;;;;;;;4.80;2.03;;;;;;;;;;5075422;28;20279;-69
2022/10/16 04:23:54;;;;;;;5.63;2.00;;;;;;;;;;5075427;28;20275;-75
2022/10/16 04:26:20;;;;;;;7.67;1.87;;;;;;;;;;5075305;28;20289;-69
2022/10/16 04:28:46;;;;;;;5.80;1.67;;;;;;;;;;5075219;28;20322;-69
2022/10/16 04:31:12;;;;;;;7.00;2.17;;;;;;;;;;5075147;28;20349;-69
2022/10/16 04:33:38;;;;;;;5.23;2.10;;;;;;;;;;5075033;28;20286;-69
2022/10/16 04:36:05;;;;;;;5.80;1.80;;;;;;;;;;5056601;28;20299;-69
2022/10/16 04:38:31;;;;;;;4.67;1.83;;;;;;;;;;5074684;28;20283;-69
2022/10/16 04:40:57;;;;;;;5.50;1.87;;;;;;;;;;5057339;28;20877;-69
2022/10/16 04:43:23;;;;;;;5.57;1.80;;;;;;;;;;5040570;28;20795;-69
2022/10/16 04:45:50;;;;;;;4.77;1.77;;;;;;;;;;5074618;28;20678;-69
2022/10/16 04:48:16;;;;;;;6.17;1.70;;;;;;;;;;5057307;28;20291;-68
2022/10/16 04:50:43;;;;;;;5.87;1.80;;;;;;;;;;5057092;28;20769;-68
2022/10/16 04:53:09;;;;;;;9.07;1.80;;;;;;;;;;5057976;28;20287;-69
2022/10/16 04:55:35;;;;;;;4.33;1.80;;;;;;;;;;5057863;28;20321;-69
2022/10/16 04:58:01;;;;;;;6.03;1.97;;;;;;;;;;5040356;28;20299;-68
2022/10/16 05:00:27;;;;;;;8.83;1.90;;;;;;;;;;5056745;28;20286;-69
2022/10/16 05:02:53;;;;;;;5.20;2.07;;;;;;;;;;5040439;28;20318;-69
2022/10/16 05:05:19;;;;;;;8.47;1.90;;;;;;;;;;5075091;28;20357;-69
2022/10/16 05:07:46;;;;;;;7.20;2.00;;;;;;;;;;5074017;28;20279;-69
2022/10/16 05:10:12;;;;;;;6.47;2.10;;;;;;;;;;5073733;28;20816;-69
2022/10/16 05:12:38;;;;;;;5.23;2.07;;;;;;;;;;5074118;28;20366;-69
2022/10/16 05:15:04;;;;;;;7.73;2.40;;;;;;;;;;5057617;28;20291;-69
2022/10/16 05:17:30;;;;;;;5.37;2.30;;;;;;;;;;5056453;28;20389;-69
2022/10/16 05:19:56;;;;;;;5.87;2.10;;;;;;;;;;5074253;28;20822;-68
2022/10/16 05:22:23;;;;;;;7.17;2.63;;;;;;;;;;5057367;28;20407;-69
2022/10/16 05:24:49;;;;;;;9.03;3.10;;;;;;;;;;5074735;28;20635;-69
2022/10/16 05:27:18;;;;;;;5.50;2.30;;;;;;;;;;5073602;28;20381;-69
2022/10/16 05:29:46;;;;;;;5.23;2.30;;;;;;;;;;5055558;28;20294;-69
2022/10/16 05:32:12;;;;;;;7.17;2.70;;;;;;;;;;5073824;28;20327;-69
2022/10/16 05:34:38;;;;;;;6.70;2.40;;;;;;;;;;5073222;28;20279;-69
2022/10/16 05:37:04;;;;;;;6.77;2.50;;;;;;;;;;5073595;28;20343;-69
2022/10/16 05:39:30;;;;;;;7.30;2.83;;;;;;;;;;5074087;28;20662;-69
2022/10/16 05:41:56;;;;;;;7.60;2.23;;;;;;;;;;5073891;28;20279;-69
2022/10/16 05:44:22;;;;;;;8.40;2.60;;;;;;;;;;5073536;28;20961;-69
2022/10/16 05:46:49;;;;;;;7.23;2.90;;;;;;;;;;5074403;28;20279;-69
2022/10/16 05:49:15;;;;;;;9.10;2.70;;;;;;;;;;5074014;28;20279;-69
2022/10/16 05:51:41;;;;;;;7.10;2.70;;;;;;;;;;5073575;28;20310;-69
2022/10/16 05:54:08;;;;;;;6.53;2.80;;;;;;;;;;5073557;28;20286;-69
2022/10/16 05:56:34;;;;;;;8.63;2.70;;;;;;;;;;5073560;28;20298;-69
2022/10/16 05:59:00;;;;;;;10.17;3.70;;;;;;;;;;5074065;28;20279;-69
2022/10/16 06:01:26;;;;;;;9.37;3.27;;;;;;;;;;5073540;28;20285;-69
2022/10/16 06:03:52;;;;;;;7.90;2.77;;;;;;;;;;5074107;28;20576;-69
2022/10/16 06:06:20;;;;;;;9.23;3.57;;;;;;;;;;5074271;28;20604;-68
2022/10/16 06:08:46;;;;;;;7.90;3.20;;;;;;;;;;5073563;28;20282;-69
2022/10/16 06:11:15;;;;;;;6.37;3.03;;;;;;;;;;5073132;28;20755;-69
2022/10/16 06:13:42;;;;;;;7.63;2.90;;;;;;;;;;5073402;28;20370;-69
2022/10/16 06:16:08;;;;;;;9.60;3.17;;;;;;;;;;5073806;28;20294;-70
2022/10/16 06:18:34;;;;;;;6.97;2.93;;;;;;;;;;5055664;28;20282;-68
2022/10/16 06:21:07;;;;;;;7.73;3.07;;;;;;;;;;5073349;28;20503;-69
2022/10/16 06:23:33;;;;;;;7.70;3.00;;;;;;;;;;5073394;28;20412;-69
2022/10/16 06:26:06;;;;;;;6.20;2.50;;;;;;;;;;5073306;28;20324;-68
2022/10/16 06:28:32;;;;;;;8.47;2.90;;;;;;;;;;5073194;28;20274;-69
2022/10/16 06:31:02;;;;;;;9.67;3.03;;;;;;;;;;5073234;28;20290;-68
2022/10/16 06:33:28;;;;;;;11.93;3.00;;;;;;;;;;5073221;28;20283;-69
2022/10/16 06:35:54;;;;;;;10.57;2.73;;;;;;;;;;5055099;28;20820;-69
2022/10/16 06:38:20;;;;;;;9.90;2.97;;;;;;;;;;5073942;28;20279;-69
2022/10/16 06:40:48;;;;;;;7.40;2.67;;;;;;;;;;5073872;28;20275;-69
2022/10/16 06:43:14;;;;;;;11.13;3.00;;;;;;;;;;5074211;28;20275;-69
2022/10/16 06:45:40;;;;;;;8.57;2.40;;;;;;;;;;5073107;28;20341;-69
2022/10/16 06:48:06;;;;;;;7.93;2.40;;;;;;;;;;5056244;28;20283;-69
2022/10/16 06:50:32;;;;;;;6.83;2.37;;;;;;;;;;5072900;28;20285;-69
2022/10/16 06:52:58;;;;;;;8.00;2.87;;;;;;;;;;5055261;28;20336;-68
2022/10/16 06:55:24;;;;;;;6.13;2.90;;;;;;;;;;5076996;28;20290;-68
2022/10/16 06:57:50;;;;;;;9.57;3.00;;;;;;;;;;5058903;28;20374;-68
2022/10/16 07:00:16;;;;;;;8.93;2.57;;;;;;;;;;5059574;28;20291;-69
2022/10/16 07:02:42;;;;;;;8.30;2.73;;;;;;;;;;5058675;28;20275;-68
2022/10/16 07:05:08;;;;;;;7.67;2.40;;;;;;;;;;5076376;28;20385;-68
2022/10/16 07:07:34;;;;;;;7.90;2.70;;;;;;;;;;5076267;28;20286;-68
2022/10/16 07:10:01;;;;;;;7.63;3.10;;;;;;;;;;5076653;28;20373;-68
2022/10/16 07:12:27;;;;;;;8.37;3.00;;;;;;;;;;5076551;28;20348;-68
2022/10/16 07:14:54;;;;;;;10.23;2.97;;;;;;;;;;5076626;28;20282;-69
2022/10/16 07:17:20;;;;;;;7.33;3.07;;;;;;;;;;5076378;28;20298;-69
2022/10/16 07:19:46;;;;;;;8.80;2.90;;;;;;;;;;5043432;28;20282;-69
2022/10/16 07:22:13;;;;;;;7.53;2.63;;;;;;;;;;5076525;28;20370;-69
2022/10/16 07:24:39;;;;;;;10.80;2.60;;;;;;;;;;5077195;28;20282;-69
2022/10/16 07:27:05;;;;;;;6.47;2.37;;;;;;;;;;5076425;28;20313;-69
2022/10/16 07:29:31;;;;;;;5.87;2.47;;;;;;;;;;5076110;28;20291;-69
2022/10/16 07:31:57;;;;;;;7.27;2.40;;;;;;;;;;5076325;28;20283;-69
2022/10/16 07:34:23;;;;;;;10.43;2.93;;;;;;;;;;5075978;28;20561;-69
2022/10/16 07:36:50;;;;;;;6.20;2.83;;;;;;;;;;5076174;28;20334;-69
2022/10/16 07:39:16;;;;;;;9.97;2.80;;;;;;;;;;5058802;28;20322;-69
2022/10/16 07:41:42;;;;;;;9.07;3.27;;;;;;;;;;5059091;28;20294;-69
2022/10/16 07:44:08;;;;;;;8.50;2.43;;;;;;;;;;5076448;28;20271;-69
2022/10/16 07:46:35;;;;;;;7.90;3.07;;;;;;;;;;5076048;28;20653;-69
2022/10/16 07:49:02;;;;;;;8.27;2.57;;;;;;;;;;5058225;28;20286;-69
2022/10/16 07:51:28;;;;;;;8.87;3.17;;;;;;;;;;5075633;28;20782;-70
2022/10/16 07:53:54;;;;;;;7.30;2.73;;;;;;;;;;5058388;28;20310;-70
2022/10/16 07:56:21;;;;;;;6.87;3.10;;;;;;;;;;5076077;28;20298;-70
2022/10/16 07:58:49;;;;;;;8.37;2.60;;;;;;;;;;5057940;28;20316;-70
2022/10/16 08:01:16;;;;;;;7.63;2.60;;;;;;;;;;5075878;28;20282;-69
2022/10/16 08:03:43;;;;;;;9.80;3.60;;;;;;;;;;5075699;28;20287;-69
2022/10/16 08:06:09;;;;;;;11.10;3.00;;;;;;;;;;5075171;28;20282;-70
2022/10/16 08:08:35;;;;;;;7.70;2.90;;;;;;;;;;5075726;28;20286;-69
2022/10/16 08:11:03;;;;;;;7.50;2.30;;;;;;;;;;5075580;28;20282;-69
2022/10/16 08:13:29;;;;;;;8.20;2.67;;;;;;;;;;5075644;28;20301;-70
2022/10/16 08:15:55;;;;;;;7.07;2.27;;;;;;;;;;5057571;28;20274;-70
2022/10/16 08:18:21;;;;;;;7.27;2.53;;;;;;;;;;5075426;28;20274;-73
2022/10/16 08:20:47;;;;;;;7.50;2.17;;;;;;;;;;5075397;28;20275;-70
2022/10/16 08:23:13;;;;;;;9.27;2.80;;;;;;;;;;5075346;28;20275;-70
2022/10/16 08:25:40;;;;;;;7.17;2.30;;;;;;;;;;5075269;28;20274;-69
2022/10/16 08:28:07;;;;;;;9.17;2.47;;;;;;;;;;5075185;28;20274;-69
2022/10/16 08:30:33;;;;;;;8.23;1.70;;;;;;;;;;5074747;28;20288;-70
2022/10/16 08:33:00;;;;;;;9.80;2.27;;;;;;;;;;5075162;28;20275;-69
2022/10/16 08:35:26;;;;;;;6.53;1.70;;;;;;;;;;5057358;28;20283;-70
2022/10/16 08:37:52;;;;;;;12.30;2.43;;;;;;;;;;5074998;28;20299;-70
2022/10/16 08:40:20;;;;;;;7.43;2.10;;;;;;;;;;5057374;28;20057;-70
2022/10/16 08:43:05;;;;;;;9.03;2.23;;;;;;;;;;5075757;28;20048;-70
2022/10/16 08:45:35;;;;;;;8.77;2.40;;;;;;;;;;5075426;28;20596;-69
2022/10/16 08:48:09;;;;;;;8.77;2.67;;;;;;;;;;5075156;28;20051;-69
2022/10/16 08:50:37;;;;;;;10.20;3.50;;;;;;;;;;5075194;28;20279;-69
2022/10/16 08:53:06;;;;;;;9.13;2.20;;;;;;;;;;5057156;28;20047;-69
2022/10/16 08:55:41;;;;;;;8.40;2.80;;;;;;;;;;5074816;28;20145;-69
2022/10/16 08:58:18;;;;;;;10.93;2.40;;;;;;;;;;5074758;28;20051;-69
2022/10/16 09:00:46;;;;;;;10.20;2.73;;;;;;;;;;5074327;28;20790;-69
2022/10/16 09:03:25;;;;;;;8.20;2.70;;;;;;;;;;5074644;28;20463;-68
2022/10/16 09:06:10;;;;;;;9.50;2.53;;;;;;;;;;5056809;28;20298;-69
2022/10/16 09:08:48;;;;;;;8.52;2.20;;;;;;;;;;5074471;28;20305;-69
2022/10/16 09:11:27;;;;;;;11.83;2.20;;;;;;;;;;5074357;28;20396;-70
2022/10/16 09:14:03;;;;;;;8.50;2.20;;;;;;;;;;5074319;28;20044;-70
2022/10/16 09:16:33;;;;;;;11.87;2.40;;;;;;;;;;5074172;28;20389;-75
2022/10/16 09:19:08;;;;;;;13.53;2.23;;;;;;;;;;5074397;28;20040;-70
2022/10/16 09:21:42;;;;;;;18.92;2.90;;;;;;;;;;5074259;28;20097;-70
2022/10/16 09:24:28;;;;;;;13.50;2.60;;;;;;;;;;5057185;28;20544;-69
2022/10/16 09:26:54;;;;;;;13.20;2.70;;;;;;;;;;5074267;28;20040;-69
2022/10/16 09:29:21;;;;;;;15.93;2.50;;;;;;;;;;5074651;28;20094;-69
2022/10/16 09:31:48;;;;;;;12.47;2.23;;;;;;;;;;5074028;28;20477;-70
2022/10/16 09:34:34;;;;;;;13.33;3.17;;;;;;;;;;5073956;28;20093;-71
2022/10/16 09:37:02;;;;;;;10.53;2.20;;;;;;;;;;5074016;28;20036;-70
2022/10/16 09:39:28;;;;;;;16.10;2.70;;;;;;;;;;5073904;28;20108;-70
2022/10/16 09:41:55;;;;;;;14.30;2.73;;;;;;;;;;5073880;28;20049;-70
2022/10/16 09:44:31;;;;;;;16.83;3.17;;;;;;;;;;5073797;28;20055;-70
2022/10/16 09:47:03;;;;;;;10.57;2.80;;;;;;;;;;5074075;28;20059;-70
2022/10/16 09:49:29;;;;;;;12.47;2.43;;;;;;;;;;5074085;28;20659;-69
2022/10/16 09:52:16;;;;;;;14.83;2.50;;;;;;;;;;5055997;28;20055;-69
2022/10/16 09:54:52;;;;;;;13.30;2.67;;;;;;;;;;5073562;28;20059;-70
2022/10/16 09:57:19;;;;;;;13.23;2.40;;;;;;;;;;5073484;28;20090;-70
2022/10/16 09:59:55;;;;;;;14.17;2.73;;;;;;;;;;5073429;28;20128;-70
2022/10/16 10:02:38;;;;;;;14.60;3.77;;;;;;;;;;5056041;28;20040;-70
2022/10/16 10:05:19;;;;;;;12.10;2.40;;;;;;;;;;5073541;28;20098;-70
2022/10/16 10:07:46;;;;;;;12.80;2.70;;;;;;;;;;5073424;28;20091;-69
2022/10/16 10:10:23;;;;;;;14.87;2.67;;;;;;;;;;5073547;28;20048;-69
2022/10/16 10:12:49;;;;;;;13.33;2.50;;;;;;;;;;5073586;28;20049;-69
2022/10/16 10:15:21;;;;;;;12.33;2.60;;;;;;;;;;5072953;28;20048;-68
2022/10/16 10:17:54;;;;;;;14.17;2.30;;;;;;;;;;5073517;28;20299;-71
2022/10/16 10:20:28;;;;;;;13.07;2.90;;;;;;;;;;5073294;28;20044;-69
2022/10/16 10:22:55;;;;;;;12.90;3.50;;;;;;;;;;5073491;28;20135;-69
2022/10/16 10:25:24;;;;;;;15.30;3.07;;;;;;;;;;5073461;28;20052;-73
2022/10/16 10:27:53;;;;;;;16.90;2.90;;;;;;;;;;5055192;28;20055;-69
2022/10/16 10:30:30;;;;;;;13.97;3.00;;;;;;;;;;5073418;28;20056;-69
2022/10/16 10:32:59;;;;;;;14.13;2.43;;;;;;;;;;5074201;28;20052;-70
2022/10/16 10:35:28;;;;;;;19.30;3.83;;;;;;;;;;5073342;28;20464;-69
2022/10/16 10:38:03;;;;;;;15.53;3.13;;;;;;;;;;5073199;28;20076;-69
2022/10/16 10:40:35;;;;;;;15.80;2.83;;;;;;;;;;5072888;28;20500;-70
2022/10/16 10:43:08;;;;;;;14.90;3.20;;;;;;;;;;5073159;28;20044;-71
2022/10/16 10:45:59;;;;;;;14.57;2.77;;;15.50;99.90;;;;;;5073540;28;20102;-71
2022/10/16 10:48:45;;;;;;;12.77;2.60;;;;;;;;;;5055800;28;20052;-69
2022/10/16 10:51:14;;;;;;;9.17;2.30;;;;;;;;;;5072929;28;20052;-70
2022/10/16 10:53:58;;;;;;;13.83;3.17;;;;;;;;;;5055073;28;20154;-71
2022/10/16 10:56:27;;;;;;;13.43;3.17;;;;;;;;;;5055094;28;20481;-70
2022/10/16 10:59:09;;;;;;;12.33;2.70;;;;;;;;;;5072871;28;20052;-71
2022/10/16 11:01:35;;;;;;;13.97;3.10;;;;;;;;;;5038749;28;20044;-71
2022/10/16 11:04:20;;;;;;;15.17;2.97;;;;;;;;;;5072629;28;20438;-71
2022/10/16 11:06:51;;;;;;;11.52;2.50;;;;;;;;;;5072937;28;20066;-71
2022/10/16 11:09:33;;;;;;;16.70;3.80;;;;;;;;;;5055591;28;20424;-71
2022/10/16 11:12:22;;;;;;;13.17;2.37;;;;;;;;;;5072904;28;20051;-70
2022/10/16 11:15:07;;;;;;;13.07;3.13;;;;;;;;;;5042582;28;20052;-71
2022/10/16 11:17:39;;;;;;;17.25;3.55;;;;;;;;;;5072757;28;20538;-70
2022/10/16 11:20:34;;;;;;;18.07;3.17;;;;;;;;;;5055867;28;20437;-71
2022/10/16 11:23:05;;;;;;;15.13;4.10;;;;;;;;;;4984406;28;20591;-70
2022/10/16 11:25:32;;;;;;;17.57;3.30;;;;;;;;;;5072798;28;20131;-70
2022/10/16 11:27:58;;;;;;;15.27;3.13;;;;;;;;;;5038434;28;20060;-71
2022/10/16 11:30:29;;;;;;;18.33;2.87;;;;;;;;;;5054668;28;20052;-71
2022/10/16 11:33:03;;;;;;;16.70;3.33;;;;;;;;;;5072694;28;20048;-71
2022/10/16 11:35:49;;;;;;;16.15;3.00;;;;;;;;;;5072620;28;20056;-71
2022/10/16 11:38:33;;;;;;;13.83;2.60;;;;;;;;;;5072545;28;20053;-71
2022/10/16 11:41:03;;;;;;;14.40;3.40;;;;;;;;;;5074195;28;20055;-70
2022/10/16 11:43:32;;;;;;;17.47;3.30;;;;;;;;;;5076016;28;20133;-69
2022/10/16 11:45:59;;;;;;;13.93;2.90;;;;;;;;;;5058181;28;20048;-72
2022/10/16 11:48:32;;;;;;;18.33;3.23;;;;;;;;;;5076071;28;20040;-71
2022/10/16 11:51:16;;;;;;;16.20;4.00;;;;;;;;;;5076571;28;20044;-71
2022/10/16 11:53:49;;;;;;;19.57;3.77;;;;;;;;;;5059232;28;20048;-72
2022/10/16 11:56:17;;;;;;;14.37;3.97;;;;;;;;;;5075922;28;20041;-71
2022/10/16 11:58:58;;;;;;;13.77;2.70;;;;;;;;;;5075887;28;20473;-70
2022/10/16 12:01:39;;;;;;;13.87;3.20;;;;;;;;;;5075952;28;20074;-69
2022/10/16 12:04:17;;;;;;;13.67;2.63;;;;;;;;;;5076388;28;20048;-70
2022/10/16 12:06:46;;;;;;;15.47;3.47;;;;;;;;;;5075501;28;20627;-69
2022/10/16 12:09:32;;;;;;;16.43;3.50;;;;;;;;;;5076202;28;20056;-70
2022/10/16 12:11:58;;;;;;;19.07;3.97;;;;;;;;;;5076234;28;20049;-70
2022/10/16 12:14:30;;;;;;;13.97;2.87;;;;;;;;;;5075886;28;20045;-69
2022/10/16 12:17:15;;;;;;;15.03;3.17;;;;;;;;;;5075471;28;20091;-69
2022/10/16 12:19:41;;;;;;;12.82;2.97;;;;;;;;;;5075602;28;20048;-71
2022/10/16 12:22:18;;;;;;;17.80;3.80;;;;;;;;;;5075454;28;20048;-70
2022/10/16 12:24:45;;;;;;;11.73;2.87;;;;;;;;;;5075241;28;20480;-69
2022/10/16 12:27:23;;;;;;;16.63;3.33;;;;;;;;;;5075387;28;20476;-69
2022/10/16 12:29:55;;;;;;;16.20;3.20;;;;;;;;;;5057572;28;20059;-69
2022/10/16 12:32:32;;;;;;;11.47;2.40;;;;;;;;;;5075910;28;20045;-69
2022/10/16 12:34:59;;;;;;;11.67;2.67;;;;;;;;;;5075386;28;20084;-69
2022/10/16 12:37:26;;;;;;;13.37;2.80;;;;;;;;;;5074902;28;20555;-69
2022/10/16 12:39:53;;;;;;;15.00;3.00;;;;;;;;;;5075918;28;20067;-69
2022/10/16 12:42:19;;;;;;;10.20;2.37;;;;;;;;;;5075153;28;20048;-70
2022/10/16 12:44:45;;;;;;;12.90;2.57;;;;;;;;;;5075076;28;20160;-70
2022/10/16 12:47:21;;;;;;;13.43;3.10;;;;;;;;;;5074967;28;20045;-69
2022/10/16 12:49:52;;;;;;;17.73;3.33;;;;;;;;;;5074952;28;20040;-69
2022/10/16 12:52:44;;;;;;;17.60;3.30;;;;;;;;;;5075171;28;20123;-69
2022/10/16 12:55:17;;;;;;;12.97;2.43;;;;;;;;;;5070511;28;20555;-69
2022/10/16 12:57:43;;;;;;;15.13;2.73;;;;;;;;;;5074649;28;20094;-69
2022/10/16 13:00:21;;;;;;;9.63;2.70;;;;;;;;;;5075245;28;20053;-69
2022/10/16 13:02:57;;;;;;;13.00;3.60;;;;;;;;;;5074676;28;20052;-69
2022/10/16 13:05:29;;;;;;;13.83;2.90;;;;;;;;;;5056915;28;20052;-69
2022/10/16 13:08:10;;;;;;;10.40;2.43;;;;;;;;;;5075073;28;20423;-68
2022/10/16 13:10:41;;;;;;;17.87;3.53;;;;;;;;;;5056646;28;20054;-68
2022/10/16 13:13:10;;;;;;;12.33;3.07;;;;;;;;;;5075264;28;20358;-69
2022/10/16 13:15:42;;;;;;;12.03;2.83;;;;;;;;;;5074371;28;20040;-69
2022/10/16 13:18:40;;;;;;;14.03;3.23;;;;;;;;;;5057222;28;20051;-70
2022/10/16 13:21:18;;;;;;;8.73;2.10;;;;;;;;;;5019376;28;20060;-69
2022/10/16 13:23:53;;;;;;;7.97;2.50;;;;;;;;;;5074687;28;20129;-70
2022/10/16 13:26:34;;;;;;;12.37;2.60;;;;;;;;;;5056568;28;20044;-71
2022/10/16 13:29:01;;;;;;;10.70;2.60;;;;;;;;;;5074055;28;20055;-72
2022/10/16 13:31:28;;;;;;;13.53;2.70;;;;;;;;;;5074809;28;20062;-71
2022/10/16 13:33:58;;;;;;;12.77;3.37;;;;;;;;;;5074175;28;20051;-69
2022/10/16 13:36:29;;;;;;;13.87;2.73;;;;;;;;;;5056283;28;20088;-69
2022/10/16 13:39:11;;;;;;;12.07;3.27;;;;;;;;;;5056295;28;20416;-71
2022/10/16 13:41:37;;;;;;;14.83;2.87;;;;;;;;;;5073944;28;20044;-70
2022/10/16 13:44:03;;;;;;;16.47;2.80;;;;;;;;;;5074251;28;20090;-71
2022/10/16 13:46:34;;;;;;;12.47;2.90;;;;;;;;;;5073870;28;20043;-70
2022/10/16 13:49:04;;;;;;;14.50;2.97;;;;;;;;;;5056777;28;20381;-69
2022/10/16 13:51:30;;;;;;;13.20;3.60;;;;;;;;;;5056131;28;20048;-71
2022/10/16 13:53:57;;;;;;;10.10;2.37;;;;;;;;;;5074025;28;20099;-69
2022/10/16 13:56:25;;;;;;;10.60;2.30;;;;;;;;;;5056257;28;20062;-69
2022/10/16 13:59:05;;;;;;;11.37;2.40;;;;;;;;;;5073980;28;20048;-70
2022/10/16 14:01:36;;;;;;;17.13;3.37;;;;;;;;;;5056222;28;20052;-70
2022/10/16 14:04:06;;;;;;;14.43;2.53;;;;;;;;;;5073657;28;20127;-70
2022/10/16 14:06:32;;;;;;;15.40;3.50;;;;;;;;;;5073550;28;20041;-72
2022/10/16 14:09:05;;;;;;;18.03;3.97;;;;;;;;;;5074346;28;20048;-68
2022/10/16 14:11:32;;;;;;;16.20;3.83;;;;;;;;;;5073814;28;20059;-69
2022/10/16 14:13:58;;;;;;;12.57;2.90;;;;;;;;;;5073744;28;20469;-70
2022/10/16 14:16:27;;;;;;;12.83;2.67;;;;;;;;;;5074511;28;20041;-70
2022/10/16 14:18:59;;;;;;;12.37;2.83;;;;;;;;;;5073615;28;20128;-68
2022/10/16 14:21:26;;;;;;;13.77;2.93;;;;;;;;;;5073677;28;20048;-69
2022/10/16 14:23:52;;;;;;;10.07;2.10;;;;;;;;;;5073462;28;20438;-69
2022/10/16 14:26:20;;;;;;;14.40;3.17;;;;;;;;;;5073423;28;20045;-69
2022/10/16 14:28:48;;;;;;;13.17;3.27;;;;;;;;;;5073326;28;20472;-71
2022/10/16 14:31:20;;;;;;;14.07;2.97;;;;;;;;;;5073701;28;20145;-70
2022/10/16 14:33:46;;;;;;;15.27;3.83;;;;;;;;;;5073126;28;20060;-68
2022/10/16 14:36:14;;;;;;;14.90;2.90;;;;;;;;;;5073773;28;20040;-69
2022/10/16 14:38:42;;;;;;;17.00;3.43;;;;;;;;;;5073085;28;20129;-68
2022/10/16 14:41:08;;;;;;;11.17;2.23;;;;;;;;;;5073026;28;20049;-68
2022/10/16 14:43:34;;;;;;;16.53;2.97;;;;;;;;;;5073130;28;20041;-68
2022/10/16 14:46:02;;;;;;;14.23;3.00;;;;;;;;;;5073101;28;20469;-70
2022/10/16 14:48:28;;;;;;;17.03;3.07;;;;;;;;;;5073531;28;20053;-68
2022/10/16 14:50:54;;;;;;;17.17;2.97;;;;;;;;;;5073263;28;20044;-68
2022/10/16 14:53:20;;;;;;;12.90;3.20;;;;;;;;;;5073478;28;20048;-68